createdAt,value
2018-11-06T00:00:07.029Z,9.83
2018-11-06T00:02:35.621Z,9.82
2018-11-06T00:05:09.444Z,9.80
2018-11-06T00:07:37.974Z,9.79
2018-11-06T00:10:06.520Z,9.77
2018-11-06T00:12:35.111Z,9.79
2018-11-06T00:15:03.729Z,9.77
2018-11-06T00:17:32.282Z,9.76
2018-11-06T00:20:00.998Z,9.77
2018-11-06T00:22:29.601Z,9.76
2018-11-06T00:24:58.415Z,9.77
2018-11-06T00:27:27.129Z,9.77
2018-11-06T00:29:55.693Z,9.77
2018-11-06T00:32:24.198Z,9.76
2018-11-06T00:34:52.815Z,9.77
2018-11-06T00:37:21.399Z,9.76
2018-11-06T00:39:50.013Z,9.76
2018-11-06T00:42:18.550Z,9.75
2018-11-06T00:44:47.118Z,9.74
2018-11-06T00:47:15.687Z,9.71
2018-11-06T00:49:44.220Z,9.72
2018-11-06T00:52:12.762Z,9.71
2018-11-06T00:54:41.311Z,9.72
2018-11-06T00:57:09.879Z,9.72
2018-11-06T00:59:38.466Z,9.71
2018-11-06T01:02:07.377Z,9.70
2018-11-06T01:04:35.904Z,9.70
2018-11-06T01:07:04.813Z,9.70
2018-11-06T01:09:33.343Z,9.69
2018-11-06T01:12:01.879Z,9.68
2018-11-06T01:14:30.465Z,9.69
2018-11-06T01:16:59.046Z,9.67
2018-11-06T01:19:27.576Z,9.68
2018-11-06T01:21:56.163Z,9.67
2018-11-06T01:24:24.693Z,9.65
2018-11-06T01:26:53.299Z,9.65
2018-11-06T01:29:22.227Z,9.63
2018-11-06T01:31:50.823Z,9.63
2018-11-06T01:34:19.329Z,9.63
2018-11-06T01:36:47.967Z,9.61
2018-11-06T01:39:16.678Z,9.58
2018-11-06T01:41:45.175Z,9.56
2018-11-06T01:44:13.835Z,9.53
2018-11-06T01:46:42.358Z,9.53
2018-11-06T01:49:10.904Z,9.52
2018-11-06T01:51:39.480Z,9.49
2018-11-06T01:54:07.991Z,9.47
2018-11-06T01:56:36.569Z,9.47
2018-11-06T01:59:05.308Z,9.47
2018-11-06T02:01:36.815Z,9.48
2018-11-06T02:04:05.394Z,9.48
2018-11-06T02:06:33.933Z,9.50
2018-11-06T02:09:02.552Z,9.48
2018-11-06T02:11:31.158Z,9.48
2018-11-06T02:13:59.790Z,9.45
2018-11-06T02:16:28.347Z,9.45
2018-11-06T02:18:56.883Z,9.45
2018-11-06T02:21:25.446Z,9.44
2018-11-06T02:23:53.966Z,9.43
2018-11-06T02:26:22.597Z,9.42
2018-11-06T02:28:51.162Z,9.42
2018-11-06T02:31:19.815Z,9.40
2018-11-06T02:33:48.342Z,9.37
2018-11-06T02:36:16.874Z,9.35
2018-11-06T02:38:45.420Z,9.33
2018-11-06T02:41:13.918Z,9.32
2018-11-06T02:43:42.637Z,9.29
2018-11-06T02:46:11.167Z,9.25
2018-11-06T02:48:39.712Z,9.22
2018-11-06T02:51:08.257Z,9.19
2018-11-06T02:53:36.899Z,9.15
2018-11-06T02:56:05.603Z,9.13
2018-11-06T02:58:34.158Z,9.10
2018-11-06T03:01:02.807Z,9.07
2018-11-06T03:03:36.527Z,9.03
2018-11-06T03:06:05.047Z,8.99
2018-11-06T03:08:33.677Z,8.97
2018-11-06T03:11:02.221Z,8.95
2018-11-06T03:13:30.764Z,8.93
2018-11-06T03:15:59.377Z,8.91
2018-11-06T03:18:27.907Z,8.90
2018-11-06T03:21:00.792Z,8.88
2018-11-06T03:23:29.335Z,8.87
2018-11-06T03:25:57.934Z,8.85
2018-11-06T03:28:26.469Z,8.82
2018-11-06T03:30:54.970Z,8.79
2018-11-06T03:33:23.563Z,8.76
2018-11-06T03:35:52.067Z,8.74
2018-11-06T03:38:20.740Z,8.72
2018-11-06T03:40:49.273Z,8.69
2018-11-06T03:43:17.789Z,8.68
2018-11-06T03:45:46.321Z,8.66
2018-11-06T03:48:14.868Z,8.63
2018-11-06T03:50:43.420Z,8.62
2018-11-06T03:53:12.002Z,8.59
2018-11-06T03:55:40.585Z,8.57
2018-11-06T03:58:09.131Z,8.54
2018-11-06T04:00:37.742Z,8.51
2018-11-06T04:03:06.740Z,8.49
2018-11-06T04:05:35.285Z,8.43
2018-11-06T04:08:03.882Z,8.40
2018-11-06T04:10:32.487Z,8.40
2018-11-06T04:13:01.144Z,8.41
2018-11-06T04:15:29.838Z,8.40
2018-11-06T04:17:58.403Z,8.38
2018-11-06T04:20:26.952Z,8.36
2018-11-06T04:22:55.571Z,8.36
2018-11-06T04:25:24.127Z,8.35
2018-11-06T04:27:53.005Z,8.35
2018-11-06T04:30:21.566Z,8.35
2018-11-06T04:32:50.132Z,8.34
2018-11-06T04:35:18.702Z,8.33
2018-11-06T04:37:47.294Z,8.31
2018-11-06T04:40:15.813Z,8.29
2018-11-06T04:42:44.530Z,8.26
2018-11-06T04:45:13.672Z,8.25
2018-11-06T04:47:42.603Z,8.24
2018-11-06T04:50:11.375Z,8.23
2018-11-06T04:52:40.281Z,8.20
2018-11-06T04:55:10.245Z,8.19
2018-11-06T04:57:38.791Z,8.16
2018-11-06T05:00:09.614Z,8.17
2018-11-06T05:02:38.318Z,8.16
2018-11-06T05:05:07.230Z,8.14
2018-11-06T05:07:35.835Z,8.16
2018-11-06T05:10:04.521Z,8.17
2018-11-06T05:12:33.010Z,8.14
2018-11-06T05:15:01.581Z,8.13
2018-11-06T05:17:30.420Z,8.13
2018-11-06T05:19:59.011Z,8.11
2018-11-06T05:22:28.033Z,8.10
2018-11-06T05:24:56.562Z,8.09
2018-11-06T05:27:25.106Z,8.09
2018-11-06T05:29:53.766Z,8.06
2018-11-06T05:32:22.514Z,8.04
2018-11-06T05:34:51.198Z,8.04
2018-11-06T05:37:19.661Z,8.02
2018-11-06T05:39:59.510Z,8.01
2018-11-06T05:42:28.084Z,7.99
2018-11-06T05:44:56.571Z,7.97
2018-11-06T05:47:25.127Z,7.94
2018-11-06T05:49:53.619Z,7.94
2018-11-06T05:52:22.245Z,7.92
2018-11-06T05:54:50.926Z,7.87
2018-11-06T05:57:19.433Z,7.85
2018-11-06T05:59:47.994Z,7.84
2018-11-06T06:02:16.612Z,7.83
2018-11-06T06:04:45.250Z,7.81
2018-11-06T06:07:13.810Z,7.79
2018-11-06T06:09:42.402Z,7.77
2018-11-06T06:12:10.907Z,7.75
2018-11-06T06:14:39.455Z,7.74
2018-11-06T06:17:08.201Z,7.74
2018-11-06T06:19:36.999Z,7.73
2018-11-06T06:22:06.055Z,7.72
2018-11-06T06:24:34.675Z,7.72
2018-11-06T06:27:03.386Z,7.72
2018-11-06T06:29:31.959Z,7.73
2018-11-06T06:32:00.570Z,7.74
2018-11-06T06:34:29.479Z,7.73
2018-11-06T06:36:58.007Z,7.75
2018-11-06T06:39:26.521Z,7.78
2018-11-06T06:41:55.116Z,7.79
2018-11-06T06:44:24.513Z,7.79
2018-11-06T06:46:53.026Z,7.82
2018-11-06T06:49:21.858Z,7.82
2018-11-06T06:51:50.371Z,7.84
2018-11-06T06:54:19.254Z,7.84
2018-11-06T06:56:47.622Z,7.85
2018-11-06T06:59:16.242Z,7.88
2018-11-06T07:01:44.895Z,7.89
2018-11-06T07:04:13.401Z,7.90
2018-11-06T07:06:41.913Z,7.92
2018-11-06T07:09:11.173Z,7.94
2018-11-06T07:11:39.698Z,7.95
2018-11-06T07:14:08.261Z,7.98
2018-11-06T07:16:36.818Z,8.01
2018-11-06T07:19:05.325Z,8.02
2018-11-06T07:21:33.822Z,8.04
2018-11-06T07:24:03.334Z,8.08
2018-11-06T07:26:32.510Z,8.11
2018-11-06T07:29:01.153Z,8.13
2018-11-06T07:31:29.725Z,8.15
2018-11-06T07:33:58.451Z,8.20
2018-11-06T07:36:27.042Z,8.22
2018-11-06T07:38:55.601Z,8.27
2018-11-06T07:41:24.261Z,8.31
2018-11-06T07:43:52.770Z,8.31
2018-11-06T07:46:21.369Z,8.36
2018-11-06T07:48:50.026Z,8.39
2018-11-06T07:51:18.562Z,8.43
2018-11-06T07:53:47.072Z,8.48
2018-11-06T07:56:15.642Z,8.52
2018-11-06T07:58:44.172Z,8.57
2018-11-06T08:01:12.717Z,8.61
2018-11-06T08:03:41.343Z,8.66
2018-11-06T08:06:09.926Z,8.69
2018-11-06T08:08:38.441Z,8.74
2018-11-06T08:11:07.066Z,8.80
2018-11-06T08:13:35.579Z,8.88
2018-11-06T08:16:04.208Z,8.93
2018-11-06T08:18:32.810Z,8.98
2018-11-06T08:21:01.384Z,9.03
2018-11-06T08:23:29.958Z,9.11
2018-11-06T08:25:58.579Z,9.17
2018-11-06T08:28:27.073Z,9.23
2018-11-06T08:30:55.913Z,9.31
2018-11-06T08:33:24.166Z,9.38
2018-11-06T08:35:52.935Z,9.46
2018-11-06T08:38:21.458Z,9.52
2018-11-06T08:40:49.994Z,9.59
2018-11-06T08:43:18.681Z,9.65
2018-11-06T08:45:47.609Z,9.69
2018-11-06T08:48:16.389Z,9.76
2018-11-06T08:50:44.885Z,9.83
2018-11-06T08:53:13.420Z,9.87
2018-11-06T08:55:41.915Z,9.92
2018-11-06T08:58:10.418Z,9.96
2018-11-06T09:00:38.963Z,10.01
2018-11-06T09:03:07.542Z,10.09
2018-11-06T09:05:36.057Z,10.14
2018-11-06T09:08:04.690Z,10.18
2018-11-06T09:10:33.607Z,10.25
2018-11-06T09:13:02.087Z,10.33
2018-11-06T09:15:30.642Z,10.38
2018-11-06T09:17:59.207Z,10.42
2018-11-06T09:20:27.787Z,10.48
2018-11-06T09:22:56.393Z,10.55
2018-11-06T09:25:24.957Z,10.59
2018-11-06T09:27:53.473Z,10.66
2018-11-06T09:30:22.310Z,10.73
2018-11-06T09:32:50.879Z,10.75
2018-11-06T09:35:19.464Z,10.78
2018-11-06T09:37:47.993Z,10.82
2018-11-06T09:40:18.042Z,10.86
2018-11-06T09:42:46.643Z,10.91
2018-11-06T09:45:15.271Z,10.97
2018-11-06T09:47:44.310Z,11.02
2018-11-06T09:50:15.423Z,11.09
2018-11-06T09:52:44.917Z,11.15
2018-11-06T09:55:13.801Z,11.24
2018-11-06T09:57:42.330Z,11.30
2018-11-06T10:00:14.466Z,11.36
2018-11-06T10:02:43.269Z,11.40
2018-11-06T10:05:12.738Z,11.48
2018-11-06T10:07:41.241Z,11.58
2018-11-06T10:10:12.565Z,11.70
2018-11-06T10:12:41.495Z,11.81
2018-11-06T10:15:12.102Z,11.92
2018-11-06T10:17:41.810Z,12.01
2018-11-06T10:20:11.283Z,12.07
2018-11-06T10:22:40.034Z,12.13
2018-11-06T10:25:09.462Z,12.19
2018-11-06T10:27:38.715Z,12.28
2018-11-06T10:30:11.747Z,12.32
2018-11-06T10:32:40.329Z,12.42
2018-11-06T10:35:09.614Z,12.48
2018-11-06T10:37:38.273Z,12.55
2018-11-06T10:40:09.515Z,12.60
2018-11-06T10:42:38.083Z,12.67
2018-11-06T10:45:07.064Z,12.77
2018-11-06T10:47:36.037Z,12.85
2018-11-06T10:50:04.874Z,12.94
2018-11-06T10:52:33.389Z,13.04
2018-11-06T10:55:01.945Z,13.12
2018-11-06T10:57:30.522Z,13.20
2018-11-06T10:59:59.104Z,13.30
2018-11-06T11:02:32.821Z,13.39
2018-11-06T11:05:01.401Z,13.48
2018-11-06T11:07:29.908Z,13.57
2018-11-06T11:09:58.577Z,13.63
2018-11-06T11:12:27.184Z,13.68
2018-11-06T11:14:55.729Z,13.71
2018-11-06T11:17:24.251Z,13.76
2018-11-06T11:19:52.738Z,13.79
2018-11-06T11:22:21.269Z,13.83
2018-11-06T11:24:49.785Z,13.88
2018-11-06T11:27:18.273Z,13.95
2018-11-06T11:29:46.891Z,14.03
2018-11-06T11:32:15.390Z,14.08
2018-11-06T11:34:44.039Z,14.13
2018-11-06T11:37:12.643Z,14.17
2018-11-06T11:39:41.149Z,14.25
2018-11-06T11:42:09.687Z,14.29
2018-11-06T11:44:38.217Z,14.35
2018-11-06T11:47:06.797Z,14.42
2018-11-06T11:49:35.428Z,14.45
2018-11-06T11:52:10.477Z,14.50
2018-11-06T11:54:39.005Z,14.54
2018-11-06T11:57:07.542Z,14.59
2018-11-06T11:59:36.168Z,14.63
2018-11-06T12:02:05.251Z,14.67
2018-11-06T12:04:33.738Z,14.71
2018-11-06T12:07:02.328Z,14.76
2018-11-06T12:09:30.847Z,14.82
2018-11-06T12:11:59.385Z,14.88
2018-11-06T12:14:27.963Z,14.95
2018-11-06T12:16:56.518Z,15.01
2018-11-06T12:19:25.173Z,15.06
2018-11-06T12:21:53.727Z,15.12
2018-11-06T12:24:22.316Z,15.17
2018-11-06T12:26:50.898Z,15.20
2018-11-06T12:29:19.504Z,15.22
2018-11-06T12:31:48.066Z,15.25
2018-11-06T12:34:17.092Z,15.28
2018-11-06T12:36:45.739Z,15.30
2018-11-06T12:39:14.393Z,15.34
2018-11-06T12:41:43.004Z,15.37
2018-11-06T12:44:11.553Z,15.43
2018-11-06T12:46:40.163Z,15.46
2018-11-06T12:49:08.686Z,15.49
2018-11-06T12:51:37.211Z,15.53
2018-11-06T12:54:06.397Z,15.60
2018-11-06T12:56:35.283Z,15.65
2018-11-06T12:59:10.500Z,15.72
2018-11-06T13:01:39.105Z,15.78
2018-11-06T13:04:07.647Z,15.82
2018-11-06T13:06:36.165Z,15.85
2018-11-06T13:09:06.862Z,15.88
2018-11-06T13:11:35.368Z,15.91
2018-11-06T13:14:03.962Z,15.96
2018-11-06T13:16:32.466Z,16.00
2018-11-06T13:19:01.126Z,16.04
2018-11-06T13:21:29.689Z,16.11
2018-11-06T13:23:58.247Z,16.17
2018-11-06T13:26:27.023Z,16.20
2018-11-06T13:28:55.383Z,16.23
2018-11-06T13:31:23.944Z,16.23
2018-11-06T13:33:52.550Z,16.27
2018-11-06T13:36:21.134Z,16.30
2018-11-06T13:38:49.675Z,16.34
2018-11-06T13:41:18.210Z,16.37
2018-11-06T13:43:46.834Z,16.41
2018-11-06T13:46:15.270Z,16.43
2018-11-06T13:48:43.816Z,16.46
2018-11-06T13:51:12.348Z,16.47
2018-11-06T13:53:40.870Z,16.52
2018-11-06T13:56:09.442Z,16.56
2018-11-06T13:58:37.975Z,16.63
2018-11-06T14:01:06.964Z,16.67
2018-11-06T14:03:35.759Z,16.73
2018-11-06T14:06:04.631Z,16.77
2018-11-06T14:08:33.668Z,16.82
2018-11-06T14:11:02.270Z,16.86
2018-11-06T14:13:30.804Z,16.93
2018-11-06T14:15:59.286Z,17.00
2018-11-06T14:18:27.845Z,17.03
2018-11-06T14:20:57.353Z,17.08
2018-11-06T14:23:25.905Z,17.13
2018-11-06T14:25:54.426Z,17.17
2018-11-06T14:28:29.246Z,17.20
2018-11-06T14:30:57.750Z,17.25
2018-11-06T14:33:26.522Z,17.28
2018-11-06T14:35:55.125Z,17.30
2018-11-06T14:38:23.758Z,17.31
2018-11-06T14:40:52.274Z,17.31
2018-11-06T14:43:20.969Z,17.27
2018-11-06T14:45:49.536Z,17.22
2018-11-06T14:48:18.179Z,17.14
2018-11-06T14:50:46.756Z,17.06
2018-11-06T14:53:15.314Z,17.00
2018-11-06T14:55:43.870Z,16.93
2018-11-06T14:58:12.385Z,16.87
2018-11-06T15:00:41.105Z,16.80
2018-11-06T15:03:09.736Z,16.72
2018-11-06T15:05:38.315Z,16.68
2018-11-06T15:08:07.304Z,16.62
2018-11-06T15:10:35.835Z,16.56
2018-11-06T15:13:04.449Z,16.49
2018-11-06T15:15:36.012Z,16.41
2018-11-06T15:18:05.220Z,16.35
2018-11-06T15:20:33.809Z,16.28
2018-11-06T15:23:02.367Z,16.19
2018-11-06T15:25:30.975Z,16.12
2018-11-06T15:27:59.466Z,16.06
2018-11-06T15:30:28.017Z,15.98
2018-11-06T15:32:56.692Z,15.92
2018-11-06T15:35:25.242Z,15.84
2018-11-06T15:37:53.740Z,15.76
2018-11-06T15:40:22.745Z,15.70
2018-11-06T15:42:51.355Z,15.63
2018-11-06T15:45:20.573Z,15.59
2018-11-06T15:47:49.534Z,15.56
2018-11-06T15:50:19.540Z,15.48
2018-11-06T15:52:49.037Z,15.45
2018-11-06T15:55:17.621Z,15.36
2018-11-06T15:57:46.433Z,15.32
2018-11-06T16:00:17.074Z,15.24
2018-11-06T16:02:46.171Z,15.19
2018-11-06T16:05:14.715Z,15.09
2018-11-06T16:07:43.381Z,15.00
2018-11-06T16:10:14.630Z,14.92
2018-11-06T16:12:43.865Z,14.83
2018-11-06T16:15:12.395Z,14.78
2018-11-06T16:17:40.939Z,14.73
2018-11-06T16:20:11.932Z,14.68
2018-11-06T16:22:40.592Z,14.59
2018-11-06T16:25:11.439Z,14.56
2018-11-06T16:27:40.433Z,14.50
2018-11-06T16:30:12.959Z,14.41
2018-11-06T16:32:41.594Z,14.35
2018-11-06T16:35:12.193Z,14.30
2018-11-06T16:37:41.042Z,14.26
2018-11-06T16:40:10.039Z,14.20
2018-11-06T16:42:38.762Z,14.18
2018-11-06T16:45:09.020Z,14.13
2018-11-06T16:47:37.530Z,14.10
2018-11-06T16:50:07.455Z,14.04
2018-11-06T16:52:36.023Z,13.99
2018-11-06T16:55:04.655Z,13.98
2018-11-06T16:57:33.170Z,13.95
2018-11-06T17:00:01.812Z,13.91
2018-11-06T17:02:30.375Z,13.85
2018-11-06T17:04:58.940Z,13.84
2018-11-06T17:07:27.988Z,13.79
2018-11-06T17:09:56.584Z,13.75
2018-11-06T17:12:25.546Z,13.72
2018-11-06T17:14:54.128Z,13.72
2018-11-06T17:17:22.762Z,13.68
2018-11-06T17:19:51.266Z,13.63
2018-11-06T17:22:20.209Z,13.59
2018-11-06T17:24:48.802Z,13.57
2018-11-06T17:27:17.347Z,13.55
2018-11-06T17:29:45.935Z,13.53
2018-11-06T17:32:14.462Z,13.51
2018-11-06T17:34:43.046Z,13.46
2018-11-06T17:37:11.640Z,13.44
2018-11-06T17:39:40.307Z,13.45
2018-11-06T17:42:08.832Z,13.43
2018-11-06T17:44:37.361Z,13.43
2018-11-06T17:47:06.316Z,13.37
2018-11-06T17:49:34.851Z,13.34
2018-11-06T17:52:03.388Z,13.32
2018-11-06T17:54:32.019Z,13.25
2018-11-06T17:57:00.606Z,13.24
2018-11-06T17:59:29.184Z,13.20
2018-11-06T18:01:57.759Z,13.17
2018-11-06T18:04:26.501Z,13.17
2018-11-06T18:06:55.039Z,13.14
2018-11-06T18:09:23.590Z,13.07
2018-11-06T18:11:52.126Z,13.03
2018-11-06T18:14:20.766Z,13.00
2018-11-06T18:16:49.346Z,12.98
2018-11-06T18:19:17.870Z,12.96
2018-11-06T18:21:46.469Z,12.90
2018-11-06T18:24:14.998Z,12.88
2018-11-06T18:26:43.553Z,12.86
2018-11-06T18:29:12.219Z,12.86
2018-11-06T18:31:40.786Z,12.86
2018-11-06T18:34:09.404Z,12.83
2018-11-06T18:36:37.966Z,12.86
2018-11-06T18:39:09.909Z,12.85
2018-11-06T18:41:38.397Z,12.80
2018-11-06T18:44:07.146Z,12.78
2018-11-06T18:46:35.727Z,12.76
2018-11-06T18:49:04.292Z,12.75
2018-11-06T18:51:32.860Z,12.67
2018-11-06T18:54:01.657Z,12.67
2018-11-06T18:56:30.180Z,12.67
2018-11-06T18:58:58.754Z,12.61
2018-11-06T19:01:27.747Z,12.59
2018-11-06T19:03:56.295Z,12.60
2018-11-06T19:06:24.865Z,12.56
2018-11-06T19:08:53.474Z,12.54
2018-11-06T19:11:22.018Z,12.51
2018-11-06T19:13:50.619Z,12.53
2018-11-06T19:16:22.131Z,12.54
2018-11-06T19:18:50.662Z,12.56
2018-11-06T19:21:19.349Z,12.56
2018-11-06T19:23:47.957Z,12.55
2018-11-06T19:26:16.499Z,12.52
2018-11-06T19:28:45.069Z,12.51
2018-11-06T19:31:13.663Z,12.49
2018-11-06T19:33:42.253Z,12.45
2018-11-06T19:36:10.944Z,12.44
2018-11-06T19:38:39.651Z,12.41
2018-11-06T19:41:08.411Z,12.42
2018-11-06T19:43:37.278Z,12.42
2018-11-06T19:46:06.039Z,12.41
2018-11-06T19:48:34.708Z,12.40
2018-11-06T19:51:03.305Z,12.39
2018-11-06T19:53:38.774Z,12.37
2018-11-06T19:56:07.228Z,12.37
2018-11-06T19:58:35.735Z,12.37
2018-11-06T20:01:04.476Z,12.35
2018-11-06T20:03:33.131Z,12.31
2018-11-06T20:06:01.745Z,12.29
2018-11-06T20:08:30.407Z,12.26
2018-11-06T20:10:59.119Z,12.23
2018-11-06T20:13:27.791Z,12.23
2018-11-06T20:15:56.914Z,12.23
2018-11-06T20:18:25.697Z,12.25
2018-11-06T20:20:54.893Z,12.23
2018-11-06T20:23:23.714Z,12.20
2018-11-06T20:25:52.482Z,12.16
2018-11-06T20:28:21.179Z,12.10
2018-11-06T20:30:50.178Z,12.04
2018-11-06T20:33:19.103Z,12.00
2018-11-06T20:35:47.812Z,11.92
2018-11-06T20:38:16.597Z,11.88
2018-11-06T20:40:45.630Z,11.86
2018-11-06T20:43:14.549Z,11.85
2018-11-06T20:45:43.404Z,11.81
2018-11-06T20:48:12.242Z,11.79
2018-11-06T20:50:40.930Z,11.79
2018-11-06T20:53:09.583Z,11.76
2018-11-06T20:55:39.049Z,11.71
2018-11-06T20:58:07.539Z,11.69
2018-11-06T21:00:36.084Z,11.64
2018-11-06T21:03:11.231Z,11.63
2018-11-06T21:05:39.803Z,11.62
2018-11-06T21:08:08.330Z,11.60
2018-11-06T21:10:36.921Z,11.59
2018-11-06T21:13:05.635Z,11.60
2018-11-06T21:15:34.185Z,11.59
2018-11-06T21:18:03.003Z,11.56
2018-11-06T21:20:31.504Z,11.53
2018-11-06T21:23:00.038Z,11.52
2018-11-06T21:25:28.695Z,11.49
2018-11-06T21:27:57.227Z,11.44
2018-11-06T21:30:25.725Z,11.40
2018-11-06T21:32:54.608Z,11.37
2018-11-06T21:35:23.866Z,11.32
2018-11-06T21:37:52.506Z,11.31
2018-11-06T21:40:21.811Z,11.29
2018-11-06T21:42:50.737Z,11.27
2018-11-06T21:45:19.512Z,11.24
2018-11-06T21:47:48.985Z,11.20
2018-11-06T21:50:17.948Z,11.16
2018-11-06T21:52:46.595Z,11.13
2018-11-06T21:55:17.523Z,11.11
2018-11-06T21:57:46.124Z,11.08
2018-11-06T22:00:17.002Z,11.02
2018-11-06T22:02:45.564Z,10.97
2018-11-06T22:05:15.368Z,10.93
2018-11-06T22:07:44.199Z,10.91
2018-11-06T22:10:13.949Z,10.91
2018-11-06T22:12:43.468Z,10.88
2018-11-06T22:15:13.102Z,10.86
2018-11-06T22:17:41.788Z,10.82
2018-11-06T22:20:12.107Z,10.77
2018-11-06T22:22:41.118Z,10.73
2018-11-06T22:25:09.693Z,10.70
2018-11-06T22:27:38.321Z,10.66
2018-11-06T22:30:10.878Z,10.63
2018-11-06T22:32:39.825Z,10.60
2018-11-06T22:35:10.195Z,10.59
2018-11-06T22:37:39.099Z,10.54
2018-11-06T22:40:08.236Z,10.52
2018-11-06T22:42:36.804Z,10.49
2018-11-06T22:45:06.394Z,10.45
2018-11-06T22:47:35.038Z,10.44
2018-11-06T22:50:03.581Z,10.43
2018-11-06T22:52:32.159Z,10.39
2018-11-06T22:55:00.769Z,10.37
2018-11-06T22:57:29.502Z,10.38
2018-11-06T22:59:58.090Z,10.37
2018-11-06T23:02:26.651Z,10.34
2018-11-06T23:04:55.311Z,10.32
2018-11-06T23:08:32.577Z,10.31
2018-11-06T23:11:01.183Z,10.27
2018-11-06T23:13:30.146Z,10.25
2018-11-06T23:15:58.681Z,10.25
2018-11-06T23:18:27.287Z,10.24
2018-11-06T23:20:55.829Z,10.23
2018-11-06T23:23:24.341Z,10.21
2018-11-06T23:25:53.146Z,10.19
2018-11-06T23:28:21.732Z,10.19
2018-11-06T23:30:50.296Z,10.18
2018-11-06T23:33:18.894Z,10.18
2018-11-06T23:35:47.569Z,10.16
2018-11-06T23:38:16.343Z,10.16
2018-11-06T23:40:44.940Z,10.15
2018-11-06T23:43:13.732Z,10.15
2018-11-06T23:45:42.466Z,10.16
2018-11-06T23:48:11.066Z,10.18
2018-11-06T23:50:39.709Z,10.18
2018-11-06T23:53:08.331Z,10.18
2018-11-06T23:55:37.003Z,10.17
2018-11-06T23:58:05.737Z,10.17
